BAW732 EGLL-LSZH
Flight info
| Callsign | BAW732 |
|---|---|
| Flight time | N/A |
| Altitude | 29000 |
| Route | DET L6 DVR UL9 KONAN DCT KOK DCT SISGA DCT RITAX DCT KRH M150 LAMGO/N0447F270 T721 SUL/N0434F250 T721 RILAX |
| Aircraft | A320/M-SDE3FGHIRWY/LB1 |
Departure
| Time | 2026-04-30 14:33 |
|---|---|
| Airport | London Heathrow Airport (EGLL) |
Arrival
| Time | N/A |
|---|---|
| Airport | Zürich Airport (LSZH) |
| Time | Latitude | Longitude | Altitude | Speed | Heading |
|---|---|---|---|---|---|
| 2026-04-30 13:33 | 51.47406 | -0.48893 | 87 ft | 0 kts | 179° |
| 2026-04-30 14:18 | 51.47415 | -0.48893 | 89 ft | 0 kts | 179° |
| 2026-04-30 14:23 | 51.47417 | -0.48893 | 89 ft | 1 kts | 179° |
| 2026-04-30 14:23 | 51.47454 | -0.48894 | 87 ft | 2 kts | 179° |
| 2026-04-30 14:24 | 51.47490 | -0.48910 | 90 ft | 3 kts | 133° |
| 2026-04-30 14:24 | 51.47499 | -0.48931 | 89 ft | 1 kts | 113° |
| 2026-04-30 14:25 | 51.47500 | -0.48933 | 91 ft | 0 kts | 112° |
| 2026-04-30 14:28 | 51.47486 | -0.48836 | 90 ft | 11 kts | 90° |
| 2026-04-30 14:28 | 51.47487 | -0.48707 | 88 ft | 8 kts | 90° |
| 2026-04-30 14:28 | 51.47486 | -0.48641 | 88 ft | 10 kts | 90° |
| 2026-04-30 14:28 | 51.47469 | -0.48489 | 90 ft | 12 kts | 146° |
| 2026-04-30 14:29 | 51.47313 | -0.48476 | 87 ft | 16 kts | 180° |
| 2026-04-30 14:29 | 51.47059 | -0.48474 | 87 ft | 21 kts | 180° |
| 2026-04-30 14:30 | 51.46675 | -0.48468 | 87 ft | 13 kts | 182° |
| 2026-04-30 14:31 | 51.46532 | -0.48469 | 89 ft | 10 kts | 179° |
| 2026-04-30 14:31 | 51.46479 | -0.48396 | 89 ft | 0 kts | 86° |
| 2026-04-30 14:32 | 51.46480 | -0.48213 | 88 ft | 48 kts | 90° |
| 2026-04-30 14:32 | 51.46484 | -0.47349 | 90 ft | 105 kts | 90° |
| 2026-04-30 14:33 | 51.46487 | -0.45936 | 89 ft | 148 kts | 90° |
| 2026-04-30 14:33 | 51.46505 | -0.42403 | 1169 ft | 161 kts | 90° |
| 2026-04-30 14:33 | 51.46424 | -0.40576 | 1580 ft | 178 kts | 101° |
| 2026-04-30 14:34 | 51.45968 | -0.38559 | 1846 ft | 204 kts | 117° |
| 2026-04-30 14:34 | 51.45136 | -0.36556 | 2231 ft | 226 kts | 127° |
| 2026-04-30 14:34 | 51.44216 | -0.34721 | 3012 ft | 228 kts | 127° |
| 2026-04-30 14:34 | 51.43344 | -0.32597 | 3690 ft | 243 kts | 119° |
| 2026-04-30 14:35 | 51.42334 | -0.27335 | 5503 ft | 253 kts | 104° |
| 2026-04-30 14:35 | 51.42014 | -0.24538 | 5841 ft | 256 kts | 103° |
| 2026-04-30 14:35 | 51.41706 | -0.21709 | 5960 ft | 258 kts | 104° |
| 2026-04-30 14:36 | 51.41382 | -0.18878 | 5998 ft | 258 kts | 104° |
| 2026-04-30 14:36 | 51.41277 | -0.17999 | 5999 ft | 258 kts | 105° |
| 2026-04-30 14:36 | 51.41007 | -0.16075 | 5985 ft | 257 kts | 106° |
| 2026-04-30 14:36 | 51.40634 | -0.13274 | 6001 ft | 257 kts | 105° |
| 2026-04-30 14:37 | 51.40289 | -0.10608 | 6009 ft | 257 kts | 105° |
| 2026-04-30 14:37 | 51.40250 | -0.10313 | 6009 ft | 254 kts | 104° |
| 2026-04-30 14:37 | 51.40089 | -0.09018 | 6384 ft | 246 kts | 101° |
| 2026-04-30 14:38 | 51.40013 | -0.06433 | 7561 ft | 251 kts | 95° |
| 2026-04-30 14:38 | 51.39849 | -0.03740 | 7539 ft | 291 kts | 104° |
| 2026-04-30 14:38 | 51.39404 | -0.00739 | 7802 ft | 315 kts | 108° |
| 2026-04-30 14:38 | 51.39124 | 0.00845 | 8284 ft | 313 kts | 108° |
| 2026-04-30 14:39 | 51.38564 | 0.03930 | 9827 ft | 295 kts | 108° |
| 2026-04-30 14:39 | 51.38018 | 0.07029 | 11154 ft | 293 kts | 107° |
| 2026-04-30 14:39 | 51.37473 | 0.10322 | 11610 ft | 317 kts | 106° |
| 2026-04-30 14:40 | 51.36381 | 0.17568 | 12695 ft | 355 kts | 105° |
| 2026-04-30 14:40 | 51.35842 | 0.21371 | 13579 ft | 362 kts | 104° |
| 2026-04-30 14:40 | 51.35305 | 0.25200 | 14422 ft | 368 kts | 104° |
| 2026-04-30 14:40 | 51.34747 | 0.29224 | 15292 ft | 374 kts | 104° |
| 2026-04-30 14:41 | 51.34176 | 0.33318 | 16177 ft | 379 kts | 105° |
| 2026-04-30 14:41 | 51.33609 | 0.37364 | 17047 ft | 384 kts | 105° |
| 2026-04-30 14:41 | 51.33005 | 0.41622 | 17949 ft | 390 kts | 105° |
| 2026-04-30 14:41 | 51.32425 | 0.45668 | 18762 ft | 395 kts | 105° |
| 2026-04-30 14:42 | 51.31813 | 0.49914 | 19547 ft | 399 kts | 105° |
| 2026-04-30 14:42 | 51.31177 | 0.54315 | 20384 ft | 403 kts | 105° |
| 2026-04-30 14:42 | 51.30559 | 0.58598 | 21181 ft | 406 kts | 105° |
| 2026-04-30 14:42 | 51.29866 | 0.63069 | 21995 ft | 409 kts | 107° |
| 2026-04-30 14:43 | 51.29104 | 0.67445 | 22786 ft | 411 kts | 108° |
| 2026-04-30 14:43 | 51.28287 | 0.71835 | 23562 ft | 414 kts | 108° |
| 2026-04-30 14:43 | 51.27435 | 0.76272 | 24242 ft | 418 kts | 109° |
| 2026-04-30 14:43 | 51.26579 | 0.80724 | 24854 ft | 421 kts | 108° |
| 2026-04-30 14:44 | 51.25727 | 0.85209 | 25408 ft | 424 kts | 108° |
| 2026-04-30 14:44 | 51.24880 | 0.89747 | 25910 ft | 427 kts | 108° |
| 2026-04-30 14:44 | 51.24040 | 0.94294 | 26368 ft | 430 kts | 108° |
| 2026-04-30 14:44 | 51.23196 | 0.98881 | 26903 ft | 429 kts | 108° |
| 2026-04-30 14:45 | 51.22369 | 1.03361 | 27473 ft | 427 kts | 108° |
| 2026-04-30 14:45 | 51.21525 | 1.07919 | 28002 ft | 426 kts | 108° |
| 2026-04-30 14:45 | 51.20687 | 1.12428 | 28482 ft | 425 kts | 108° |
| 2026-04-30 14:45 | 51.19841 | 1.16956 | 28955 ft | 424 kts | 108° |
| 2026-04-30 14:46 | 51.18990 | 1.21474 | 29190 ft | 429 kts | 108° |
| 2026-04-30 14:46 | 51.18125 | 1.26059 | 29225 ft | 436 kts | 108° |
| 2026-04-30 14:46 | 51.16426 | 1.35514 | 29220 ft | 451 kts | 103° |
| 2026-04-30 14:47 | 51.15804 | 1.45463 | 29222 ft | 461 kts | 96° |
| 2026-04-30 14:47 | 51.15322 | 1.55571 | 29221 ft | 466 kts | 96° |
| 2026-04-30 14:48 | 51.14819 | 1.65859 | 29223 ft | 470 kts | 96° |
| 2026-04-30 14:48 | 51.14316 | 1.75964 | 29218 ft | 441 kts | 96° |
| 2026-04-30 14:49 | 51.14088 | 1.80599 | 29220 ft | 422 kts | 96° |
| 2026-04-30 14:49 | 51.13863 | 1.85125 | 29225 ft | 416 kts | 97° |
| 2026-04-30 14:49 | 51.12727 | 1.94301 | 29223 ft | 431 kts | 114° |
| 2026-04-30 14:50 | 51.08982 | 2.07533 | 29219 ft | 437 kts | 115° |
| 2026-04-30 14:51 | 51.05234 | 2.20511 | 29223 ft | 437 kts | 115° |
| 2026-04-30 14:52 | 51.01609 | 2.33094 | 29225 ft | 437 kts | 115° |
| 2026-04-30 14:52 | 50.97764 | 2.46360 | 29221 ft | 437 kts | 115° |
| 2026-04-30 14:53 | 50.93933 | 2.59476 | 29221 ft | 437 kts | 115° |
| 2026-04-30 14:54 | 50.88820 | 2.76948 | 29220 ft | 437 kts | 115° |
| 2026-04-30 14:55 | 50.84952 | 2.90012 | 29212 ft | 437 kts | 115° |
| 2026-04-30 14:56 | 50.79776 | 3.07428 | 29207 ft | 437 kts | 115° |
| 2026-04-30 14:57 | 50.75883 | 3.20464 | 29205 ft | 437 kts | 115° |
| 2026-04-30 14:58 | 50.70643 | 3.37871 | 29208 ft | 437 kts | 115° |
| 2026-04-30 14:58 | 50.66713 | 3.50860 | 29212 ft | 437 kts | 115° |
| 2026-04-30 15:00 | 50.60126 | 3.72444 | 29220 ft | 437 kts | 115° |
| 2026-04-30 15:01 | 50.54867 | 3.89571 | 29223 ft | 437 kts | 115° |
| 2026-04-30 15:01 | 50.50870 | 4.02470 | 29232 ft | 437 kts | 115° |
| 2026-04-30 15:02 | 50.48649 | 4.09606 | 29225 ft | 437 kts | 115° |
| 2026-04-30 15:03 | 50.41949 | 4.31079 | 29236 ft | 437 kts | 115° |
| 2026-04-30 15:04 | 50.35228 | 4.52422 | 29237 ft | 437 kts | 116° |
| 2026-04-30 15:06 | 50.28464 | 4.73707 | 29245 ft | 437 kts | 115° |
| 2026-04-30 15:07 | 50.23028 | 4.90660 | 29253 ft | 436 kts | 115° |
| 2026-04-30 15:08 | 50.17579 | 5.07584 | 29253 ft | 436 kts | 115° |
| 2026-04-30 15:09 | 50.10745 | 5.28629 | 29254 ft | 436 kts | 115° |
| 2026-04-30 15:10 | 50.05268 | 5.45346 | 29258 ft | 437 kts | 116° |
| 2026-04-30 15:11 | 49.96955 | 5.70525 | 29266 ft | 437 kts | 116° |
| 2026-04-30 15:13 | 49.89974 | 5.91481 | 29274 ft | 437 kts | 116° |
| 2026-04-30 15:14 | 49.80113 | 6.20769 | 29267 ft | 437 kts | 116° |
| 2026-04-30 15:17 | 49.67402 | 6.58061 | 29261 ft | 439 kts | 116° |
| 2026-04-30 15:19 | 49.56054 | 6.90892 | 29270 ft | 440 kts | 116° |